Flight Track Log - Related Links

Times and Time Zones

All times are in EDT time to prevent confusion due to time zone crossing. See the SWA542 flight status page for this flight to view local times or setup timezone preferences in your user account.

Time Position Orientation Groundspeed Altitude Reporting Facility
EDT Latitude Longitude Course Direction KTS MPH feet Rate Location/Type
Tue 07:33:03 PM 28.4167 -81.3167 208° Southwest 169 194 900  Level Orlando TRACON
Tue 07:34:39 PM 28.3333 -81.3667 208° Southwest 239 275 4,500 2,446 Climbing Orlando TRACON
Tue 07:35:40 PM 28.3333 -81.4500 270° West 255 293 7,300 2,850 Climbing Orlando TRACON
Tue 07:36:39 PM 28.3333 -81.5333 270° West 265 305 10,200 2,421 Climbing Orlando TRACON
Tue 07:37:34 PM 28.3500 -81.6167 283° West 336 387 11,900 2,059 Climbing Orlando TRACON
Tue 07:39:28 PM 28.3833 -81.8308 280° West 377 434 16,000 2,345 Climbing Jacksonville Center
Tue 07:40:28 PM 28.4219 -81.9461 291° West 377 434 18,700 2,500 Climbing Jacksonville Center
Tue 07:41:28 PM 28.4622 -82.0636 291° West 393 452 21,000 2,450 Climbing Jacksonville Center
Tue 07:42:28 PM 28.5006 -82.1817 290° West 398 458 23,600 2,250 Climbing Jacksonville Center
Tue 07:43:28 PM 28.5450 -82.2969 294° West 403 464 25,500 1,714 Climbing Jacksonville Center
Tue 07:44:27 PM 28.5872 -82.4175 292° West 408 470 27,000 1,550 Climbing Jacksonville Center
Tue 07:45:28 PM 28.6314 -82.5378 293° West 408 470 28,600 1,438 Climbing Jacksonville Center
Tue 07:46:28 PM 28.7172 -82.6061 325° Northwest 408 470 29,900 1,261 Climbing Jacksonville Center
Tue 07:47:27 PM 28.8322 -82.6603 338° Northwest 417 480 31,100 1,300 Climbing Jacksonville Center
Tue 07:48:28 PM 28.9492 -82.7194 336° Northwest 430 495 32,500 1,388 Climbing Jacksonville Center
Tue 07:49:28 PM 29.0639 -82.7786 336° Northwest 443 510 33,900 750 Climbing Jacksonville Center
Tue 07:50:28 PM 29.1767 -82.8356 336° Northwest 443 510 34,000 50 Climbing Jacksonville Center
Tue 07:51:28 PM 29.2894 -82.8925 336° Northwest 443 510 34,000  Level Jacksonville Center
Tue 07:52:27 PM 29.4022 -82.9497 336° Northwest 443 510 34,000  Level Jacksonville Center
Tue 07:53:28 PM 29.5169 -83.0094 336° Northwest 443 510 34,000 694 Level Jacksonville Center
Tue 07:54:28 PM 29.6275 -83.0647 337° Northwest 443 510 35,400 1,000 Climbing Jacksonville Center
Tue 07:55:28 PM 29.7422 -83.1175 338° Northwest 436 502 36,000 300 Climbing Jacksonville Center
Tue 07:56:28 PM 29.8508 -83.1681 338° Northwest 431 496 36,000  Level Jacksonville Center
Tue 07:57:28 PM 29.9592 -83.2186 338° Northwest 424 488 36,000  Level Jacksonville Center
Tue 07:58:28 PM 30.0822 -83.2742 339° North 424 488 36,000  Level Jacksonville Center
Tue 07:59:28 PM 30.1947 -83.3253 339° North 424 488 36,000  Level Jacksonville Center
Tue 08:00:28 PM 30.3031 -83.3786 337° Northwest 424 488 36,000  Level Jacksonville Center
Tue 08:01:28 PM 30.4136 -83.4272 339° North 424 488 36,000  Level Jacksonville Center
Tue 08:02:28 PM 30.5325 -83.4594 347° North 424 488 36,000  Level Jacksonville Center
Tue 08:03:28 PM 30.6514 -83.4889 348° North 424 488 36,000  Level Jacksonville Center
Tue 08:04:27 PM 30.7722 -83.5189 348° North 429 494 36,000  Level Jacksonville Center
Tue 08:05:28 PM 30.8767 -83.5461 347° North 428 493 36,000  Level Jacksonville Center
Tue 08:06:27 PM 30.9933 -83.5761 348° North 428 493 36,000  Level Jacksonville Center
Tue 08:07:28 PM 31.1100 -83.6083 347° North 428 493 36,000  Level Jacksonville Center
Tue 08:08:27 PM 31.2269 -83.6383 348° North 428 493 36,000  Level Jacksonville Center
Tue 08:10:18 PM 31.4456 -83.6956 347° North 451 519 36,000  Level Atlanta Center
Tue 08:11:18 PM 31.5606 -83.7269 347° North 435 501 36,000  Level Atlanta Center
Tue 08:12:18 PM 31.6942 -83.7581 349° North 435 501 36,000  Level Atlanta Center
Tue 08:13:18 PM 31.8131 -83.7919 346° North 435 501 36,000  Level Atlanta Center
Tue 08:14:18 PM 31.9364 -83.8233 348° North 435 501 36,000  Level Atlanta Center
Tue 08:15:18 PM 32.0533 -83.8550 347° North 435 501 36,000  Level Atlanta Center
Tue 08:16:18 PM 32.1703 -83.8867 347° North 435 501 36,000  Level Atlanta Center
Tue 08:17:18 PM 32.2892 -83.9161 348° North 435 501 36,000  Level Atlanta Center
Tue 08:18:18 PM 32.4042 -83.9478 347° North 435 501 36,000  Level Atlanta Center
Tue 08:19:18 PM 32.5250 -83.9822 346° North 435 501 36,000  Level Atlanta Center
Tue 08:20:18 PM 32.6442 -84.0142 347° North 435 501 36,000  Level Atlanta Center
Tue 08:21:18 PM 32.7631 -84.0439 348° North 430 495 36,000  Level Atlanta Center
Tue 08:22:18 PM 32.8800 -84.0783 346° North 430 495 36,000  Level Atlanta Center
Tue 08:23:18 PM 33.0011 -84.1033 350° North 430 495 36,000  Level Atlanta Center
Tue 08:24:18 PM 33.1158 -84.1431 344° North 422 486 36,000  Level Atlanta Center
Tue 08:25:18 PM 33.2347 -84.1756 347° North 422 486 36,000  Level Atlanta Center
Tue 08:26:18 PM 33.3392 -84.2006 349° North 428 493 36,000  Level Atlanta Center
Tue 08:27:18 PM 33.4581 -84.2331 347° North 434 499 36,000  Level Atlanta Center
Tue 08:28:18 PM 33.5728 -84.2633 348° North 428 493 36,000  Level Atlanta Center
Tue 08:29:18 PM 33.6939 -84.2983 346° North 433 498 36,000  Level Atlanta Center
Tue 08:30:18 PM 33.8106 -84.3314 347° North 433 498 36,000  Level Atlanta Center
Tue 08:31:18 PM 33.9294 -84.3642 347° North 433 498 36,000  Level Atlanta Center
Tue 08:32:18 PM 34.0442 -84.3972 347° North 433 498 36,000  Level Atlanta Center
Tue 08:33:18 PM 34.1736 -84.4281 349° North 456 525 36,000  Level Atlanta Center
Tue 08:34:18 PM 34.2903 -84.4611 347° North 450 518 36,000  Level Atlanta Center
Tue 08:35:18 PM 34.4133 -84.4944 347° North 444 511 36,000  Level Atlanta Center
Tue 08:36:18 PM 34.5300 -84.5278 347° North 438 504 36,000  Level Atlanta Center
Tue 08:37:18 PM 34.6508 -84.5589 348° North 438 504 36,000  Level Atlanta Center
Tue 08:38:18 PM 34.7636 -84.5950 345° North 425 489 36,000  Level Atlanta Center
Tue 08:39:18 PM 34.8803 -84.6286 347° North 425 489 36,000  Level Atlanta Center
Tue 08:40:18 PM 34.9989 -84.6625 347° North 430 495 36,000  Level Atlanta Center
Tue 08:41:18 PM 35.1136 -84.6964 346° North 430 495 36,000  Level Atlanta Center
Tue 08:42:18 PM 35.2303 -84.7278 348° North 430 495 36,000  Level Atlanta Center
Tue 08:43:18 PM 35.3469 -84.7619 347° North 430 495 36,000  Level Atlanta Center
Tue 08:44:18 PM 35.4614 -84.7933 347° North 430 495 36,000  Level Atlanta Center
Tue 08:45:18 PM 35.5781 -84.8278 346° North 430 495 36,000  Level Atlanta Center
Tue 08:46:18 PM 35.6947 -84.8622 347° North 425 489 36,000  Level Atlanta Center
Tue 08:47:18 PM 35.8197 -84.8917 349° North 434 499 36,000  Level Atlanta Center
Tue 08:49:03 PM 36.0381 -84.9586 346° North 437 503 36,000  Level Indianapolis Center
Tue 08:50:05 PM 36.1539 -84.9928 347° North 429 494 36,000  Level Indianapolis Center
Tue 08:51:06 PM 36.2714 -85.0275 347° North 434 499 36,000  Level Indianapolis Center
Tue 08:52:07 PM 36.3875 -85.0611 347° North 430 495 36,000  Level Indianapolis Center
Tue 08:53:09 PM 36.5042 -85.0947 347° North 430 495 36,000  Level Indianapolis Center
Tue 08:54:10 PM 36.6208 -85.1292 347° North 430 495 36,000  Level Indianapolis Center
Tue 08:55:11 PM 36.7364 -85.1639 346° North 427 491 36,000  Level Indianapolis Center
Tue 08:56:13 PM 36.8531 -85.1983 347° North 430 495 36,000  Level Indianapolis Center
Tue 08:57:14 PM 36.9689 -85.2328 347° North 429 494 36,000  Level Indianapolis Center
Tue 08:58:15 PM 37.1061 -85.2750 346° North 431 496 36,000  Level Indianapolis Center
Tue 08:59:17 PM 37.2231 -85.3100 347° North 431 496 36,000  Level Indianapolis Center
Tue 09:00:18 PM 37.3414 -85.3456 347° North 433 498 36,000  Level Indianapolis Center
Tue 09:01:19 PM 37.4611 -85.3808 347° North 438 504 36,000  Level Indianapolis Center
Tue 09:02:21 PM 37.5808 -85.4172 346° North 440 506 36,000  Level Indianapolis Center
Tue 09:03:22 PM 37.6978 -85.4542 346° North 435 501 36,000  Level Indianapolis Center
Tue 09:04:23 PM 37.8175 -85.4900 347° North 440 506 36,000  Level Indianapolis Center
Tue 09:05:24 PM 37.9300 -85.5228 347° North 445 512 36,000  Level Indianapolis Center
Tue 09:06:26 PM 38.0703 -85.5672 346° North 433 498 36,000 -488 Level Indianapolis Center
Tue 09:07:27 PM 38.1903 -85.5936 350° North 436 502 35,000 -984 Descending Indianapolis Center
Tue 09:08:28 PM 38.3100 -85.6164 352° North 434 499 34,000 -492 Descending Indianapolis Center
Tue 09:09:29 PM 38.4283 -85.6397 351° North 429 494 34,000  Level Indianapolis Center
Tue 09:10:31 PM 38.5464 -85.6619 352° North 429 494 34,000  Level Indianapolis Center
Tue 09:11:32 PM 38.6678 -85.6861 351° North 437 503 34,000 -541 Level Indianapolis Center
Tue 09:12:33 PM 38.7869 -85.7086 352° North 434 499 32,900 -1,033 Descending Indianapolis Center
Tue 09:13:34 PM 38.9028 -85.7311 351° North 422 486 31,900 -976 Descending Indianapolis Center
Tue 09:14:36 PM 39.0192 -85.7553 351° North 424 488 30,900 -927 Descending Indianapolis Center
Tue 09:15:37 PM 39.1319 -85.7772 351° North 412 474 30,000 -639 Descending Indianapolis Center
Tue 09:16:38 PM 39.2433 -85.7981 352° North 404 465 29,600 -787 Descending Indianapolis Center
Tue 09:17:39 PM 39.3783 -85.8264 351° North 408 470 28,400 -1,082 Descending Indianapolis Center
Tue 09:18:40 PM 39.4867 -85.8469 352° North 400 460 27,400 -976 Descending Indianapolis Center
Tue 09:19:42 PM 39.5939 -85.8678 351° North 391 450 26,400 -1,024 Descending Indianapolis Center
Tue 09:20:43 PM 39.6969 -85.8894 351° North 389 448 25,300 -984 Descending Indianapolis Center
Tue 09:21:44 PM 39.8028 -85.9094 352° North 384 442 24,400 -639 Descending Indianapolis Center
Tue 09:22:45 PM 39.9131 -85.9328 351° North 387 445 24,000 -197 Descending Indianapolis Center
Tue 09:23:46 PM 40.0208 -85.9547 351° North 388 447 24,000  Level Indianapolis Center
Tue 09:24:48 PM 40.1278 -85.9761 351° North 388 447 24,000  Level Indianapolis Center
Tue 09:25:38 PM 40.2206 -86.0042 347° North 396 456 24,000 -321 Level Chicago Center
Tue 09:26:40 PM 40.3247 -86.0586 338° Northwest 402 463 23,400 -823 Descending Chicago Center
Tue 09:27:42 PM 40.4214 -86.1092 338° Northwest 375 432 22,300 -1,016 Descending Chicago Center
Tue 09:28:44 PM 40.5125 -86.1558 339° North 355 409 21,300 -1,220 Descending Chicago Center
Tue 09:29:45 PM 40.6025 -86.2019 339° North 348 400 19,800 -1,707 Descending Chicago Center
Tue 09:30:47 PM 40.7058 -86.2542 339° North 332 382 17,800 -1,790 Descending Chicago Center
Tue 09:31:49 PM 40.7906 -86.3000 338° Northwest 329 379 16,100 -1,707 Descending Chicago Center
Tue 09:32:50 PM 40.8747 -86.3419 339° North 324 373 14,300 -1,659 Descending Chicago Center
Tue 09:33:52 PM 40.9553 -86.3839 339° North 313 360 12,700 -1,548 Descending Chicago Center
Tue 09:34:54 PM 41.0353 -86.4267 338° Northwest 309 356 11,100 -1,024 Descending Chicago Center
Tue 09:35:55 PM 41.0931 -86.5006 316° Northwest 293 337 10,600 -537 Descending Chicago Center
Tue 09:36:57 PM 41.1439 -86.5800 310° West 283 326 10,000 -290 Descending Chicago Center
Tue 09:37:59 PM 41.1914 -86.6531 311° West 266 306 10,000  Level Chicago Center
Tue 09:39:00 PM 41.2425 -86.7314 311° West 266 306 10,000 -244 Level Chicago Center
Tue 09:40:02 PM 41.2994 -86.8200 311° West 265 305 9,500 -585 Descending Chicago Center
Tue 09:41:03 PM 41.3464 -86.8958 310° West 268 308 8,800 -1,073 Descending Chicago Center
Tue 09:42:05 PM 41.3942 -86.9697 311° West 265 305 7,300 -1,268 Descending Chicago Center
Tue 09:43:06 PM 41.4442 -87.0458 311° West 271 312 6,200 -634 Descending Chicago Center
Tue 09:44:08 PM 41.4911 -87.1194 310° West 267 307 6,000 -98 Descending Chicago Center
Tue 09:45:09 PM 41.5147 -87.2028 291° West 258 297 6,000 -246 Level Chicago Center
Tue 09:46:10 PM 41.5214 -87.2947 276° West 254 292 5,500 -976 Descending Chicago Center
Tue 09:47:12 PM 41.5542 -87.4017 292° West 256 295 4,000 -732 Descending Chicago Center
Tue 09:48:13 PM 41.5814 -87.4867 293° West 255 293 4,000  Level Chicago Center
Tue 09:49:15 PM 41.5881 -87.5767 276° West 252 290 4,000  Level Chicago Center
Tue 09:50:16 PM 41.5914 -87.6633 273° West 243 280 4,000  Level Chicago Center
Tue 09:51:18 PM 41.5947 -87.7475 273° West 236 272 4,000 -98 Level Chicago Center
Tue 09:52:19 PM 41.5914 -87.8100 266° West 197 227 3,800 -689 Descending Chicago Center
Tue 09:53:20 PM 41.6156 -87.8744 297° West 186 214 2,600 -634 Descending Chicago Center
Tue 09:54:22 PM 41.6531 -87.9078 326° Northwest 188 216 2,500 -53 Descending Chicago Center
Tue 09:55:13 PM 41.6833 -87.8667 45° Northeast 184 212 2,500 -162 Level Chicago TRACON
Tue 09:56:13 PM 41.7167 -87.8333 37° Northeast 152 175 2,200 -500 Descending Chicago TRACON
Tue 09:57:13 PM 41.7500 -87.8000 37° Northeast 120 138 1,500 -700 Descending Chicago TRACON

Login

Don't have an account? Register now (free) for customized features, flight alerts, and more!